createdAt,value
2018-03-29T00:02:19.883Z,3.10
2018-03-29T00:04:45.854Z,3.10
2018-03-29T00:07:12.325Z,3.00
2018-03-29T00:09:39.050Z,3.00
2018-03-29T00:12:05.042Z,3.00
2018-03-29T00:14:31.026Z,2.80
2018-03-29T00:16:57.044Z,2.90
2018-03-29T00:19:23.793Z,3.00
2018-03-29T00:21:49.782Z,3.00
2018-03-29T00:24:15.778Z,3.10
2018-03-29T00:26:41.763Z,3.10
2018-03-29T00:29:08.487Z,2.90
2018-03-29T00:31:35.221Z,3.00
2018-03-29T00:34:01.230Z,3.00
2018-03-29T00:36:27.607Z,3.00
2018-03-29T00:38:53.618Z,2.90
2018-03-29T00:41:19.597Z,3.00
2018-03-29T00:43:45.683Z,3.00
2018-03-29T00:46:11.659Z,3.10
2018-03-29T00:48:37.683Z,3.00
2018-03-29T00:51:03.727Z,3.00
2018-03-29T00:53:36.111Z,3.10
2018-03-29T00:56:02.135Z,3.00
2018-03-29T00:58:28.137Z,3.10
2018-03-29T01:00:54.883Z,2.80
2018-03-29T01:03:21.626Z,2.90
2018-03-29T01:05:48.342Z,3.00
2018-03-29T01:08:14.335Z,3.00
2018-03-29T01:10:40.365Z,3.00
2018-03-29T01:13:06.347Z,3.00
2018-03-29T01:15:32.335Z,3.10
2018-03-29T01:17:58.367Z,3.20
2018-03-29T01:20:24.363Z,3.20
2018-03-29T01:22:50.350Z,3.30
2018-03-29T01:25:16.347Z,3.10
2018-03-29T01:27:43.079Z,3.10
2018-03-29T01:30:09.824Z,3.10
2018-03-29T01:32:37.390Z,3.00
2018-03-29T01:35:04.144Z,3.10
2018-03-29T01:37:30.133Z,3.10
2018-03-29T01:39:56.138Z,3.00
2018-03-29T01:42:22.110Z,3.00
2018-03-29T01:44:48.835Z,3.00
2018-03-29T01:47:15.539Z,3.00
2018-03-29T01:49:41.551Z,3.00
2018-03-29T01:52:07.552Z,3.00
2018-03-29T01:54:33.551Z,3.10
2018-03-29T01:56:59.567Z,3.00
2018-03-29T01:59:26.295Z,3.10
2018-03-29T02:01:52.294Z,3.10
2018-03-29T02:04:18.294Z,3.00
2018-03-29T02:06:44.291Z,3.00
2018-03-29T02:09:10.275Z,3.10
2018-03-29T02:11:36.283Z,3.00
2018-03-29T02:14:02.314Z,3.00
2018-03-29T02:16:28.309Z,3.10
2018-03-29T02:18:54.289Z,3.10
2018-03-29T02:21:21.027Z,3.20
2018-03-29T02:23:47.754Z,3.10
2018-03-29T02:26:13.755Z,3.10
2018-03-29T02:28:39.734Z,3.10
2018-03-29T02:31:05.727Z,3.10
2018-03-29T02:33:31.760Z,3.20
2018-03-29T02:35:58.490Z,3.00
2018-03-29T02:38:24.482Z,3.00
2018-03-29T02:40:50.476Z,3.00
2018-03-29T02:43:16.450Z,2.90
2018-03-29T02:45:42.444Z,3.00
2018-03-29T02:48:08.434Z,3.00
2018-03-29T02:50:34.458Z,3.00
2018-03-29T02:53:00.443Z,3.10
2018-03-29T02:55:26.419Z,3.10
2018-03-29T02:57:52.413Z,3.00
2018-03-29T03:00:18.427Z,3.10
2018-03-29T03:02:44.426Z,3.20
2018-03-29T03:05:10.381Z,3.20
2018-03-29T03:07:37.138Z,3.20
2018-03-29T03:10:03.855Z,3.20
2018-03-29T03:12:30.583Z,3.20
2018-03-29T03:14:56.574Z,3.20
2018-03-29T03:17:22.583Z,3.20
2018-03-29T03:19:48.579Z,3.20
2018-03-29T03:22:14.592Z,3.30
2018-03-29T03:24:41.301Z,3.30
2018-03-29T03:27:07.307Z,3.30
2018-03-29T03:29:33.321Z,3.20
2018-03-29T03:31:59.326Z,3.20
2018-03-29T03:34:26.044Z,3.10
2018-03-29T03:36:52.799Z,3.20
2018-03-29T03:39:18.778Z,3.20
2018-03-29T03:41:44.785Z,3.10
2018-03-29T03:44:10.774Z,3.20
2018-03-29T03:46:36.779Z,3.10
2018-03-29T03:49:02.782Z,3.00
2018-03-29T03:51:28.750Z,3.00
2018-03-29T03:53:54.742Z,3.10
2018-03-29T03:56:21.450Z,3.00
2018-03-29T03:58:47.437Z,3.00
2018-03-29T04:01:13.402Z,3.10
2018-03-29T04:03:39.368Z,3.10
2018-03-29T04:06:06.094Z,3.20
2018-03-29T04:08:32.848Z,3.10
2018-03-29T04:10:59.554Z,3.20
2018-03-29T04:13:25.547Z,3.20
2018-03-29T04:15:51.510Z,3.20
2018-03-29T04:18:18.550Z,3.20
2018-03-29T04:20:45.235Z,3.20
2018-03-29T04:23:11.196Z,3.20
2018-03-29T04:25:37.123Z,3.30
2018-03-29T04:28:03.144Z,3.30
2018-03-29T04:30:29.143Z,3.30
2018-03-29T04:32:55.171Z,3.30
2018-03-29T04:35:21.159Z,3.30
2018-03-29T04:37:47.152Z,3.30
2018-03-29T04:40:13.906Z,3.20
2018-03-29T04:42:39.903Z,3.20
2018-03-29T04:45:06.654Z,3.20
2018-03-29T04:47:33.404Z,3.20
2018-03-29T04:50:00.159Z,3.20
2018-03-29T04:52:26.139Z,3.20
2018-03-29T04:54:52.915Z,3.20
2018-03-29T04:57:18.911Z,3.20
2018-03-29T04:59:44.918Z,3.30
2018-03-29T05:02:10.890Z,3.30
2018-03-29T05:04:36.886Z,3.20
2018-03-29T05:07:02.851Z,3.10
2018-03-29T05:09:28.850Z,3.20
2018-03-29T05:11:55.562Z,3.30
2018-03-29T05:14:21.541Z,3.30
2018-03-29T05:16:47.672Z,3.20
2018-03-29T05:19:13.667Z,3.20
2018-03-29T05:21:40.423Z,3.20
2018-03-29T05:24:06.454Z,3.20
2018-03-29T05:26:38.373Z,3.40
2018-03-29T05:29:05.189Z,3.40
2018-03-29T05:31:31.182Z,3.50
2018-03-29T05:33:57.170Z,3.40
2018-03-29T05:36:23.155Z,3.40
2018-03-29T05:38:49.150Z,3.20
2018-03-29T05:41:15.139Z,3.30
2018-03-29T05:43:41.098Z,3.30
2018-03-29T05:46:07.142Z,3.30
2018-03-29T05:48:33.116Z,3.30
2018-03-29T05:50:59.859Z,3.50
2018-03-29T05:53:26.577Z,3.40
2018-03-29T05:55:52.583Z,3.40
2018-03-29T05:58:18.607Z,3.50
2018-03-29T06:00:44.603Z,3.40
2018-03-29T06:03:10.699Z,3.40
2018-03-29T06:05:36.726Z,3.30
2018-03-29T06:08:02.711Z,3.30
2018-03-29T06:10:28.703Z,3.40
2018-03-29T06:12:54.683Z,3.30
2018-03-29T06:15:21.424Z,3.30
2018-03-29T06:17:54.214Z,3.40
2018-03-29T06:20:20.286Z,3.30
2018-03-29T06:22:46.337Z,3.40
2018-03-29T06:25:12.316Z,3.30
2018-03-29T06:27:38.304Z,3.20
2018-03-29T06:30:05.044Z,3.20
2018-03-29T06:32:31.764Z,3.20
2018-03-29T06:34:57.754Z,3.20
2018-03-29T06:37:23.743Z,3.20
2018-03-29T06:39:49.709Z,3.40
2018-03-29T06:42:15.676Z,3.40
2018-03-29T06:44:41.666Z,3.30
2018-03-29T06:47:07.647Z,3.40
2018-03-29T06:49:33.641Z,3.90
2018-03-29T06:51:59.606Z,3.90
2018-03-29T06:54:25.590Z,3.80
2018-03-29T06:56:51.559Z,3.60
2018-03-29T06:59:17.534Z,3.60
2018-03-29T07:01:44.261Z,3.50
2018-03-29T07:04:10.247Z,3.40
2018-03-29T07:06:36.247Z,3.50
2018-03-29T07:09:02.259Z,3.50
2018-03-29T07:11:28.252Z,3.50
2018-03-29T07:13:54.250Z,3.50
2018-03-29T07:16:20.231Z,3.50
2018-03-29T07:18:46.214Z,3.50
2018-03-29T07:21:12.177Z,3.60
2018-03-29T07:23:38.163Z,3.50
2018-03-29T07:26:04.147Z,3.60
2018-03-29T07:28:30.162Z,3.60
2018-03-29T07:30:56.177Z,3.60
2018-03-29T07:33:22.198Z,3.40
2018-03-29T07:35:48.203Z,3.60
2018-03-29T07:38:14.938Z,3.70
2018-03-29T07:40:41.662Z,3.70
2018-03-29T07:43:07.663Z,3.70
2018-03-29T07:45:33.710Z,3.70
2018-03-29T07:48:00.269Z,3.70
2018-03-29T07:50:27.034Z,3.80
2018-03-29T07:52:53.040Z,3.70
2018-03-29T07:55:19.049Z,3.80
2018-03-29T07:57:45.807Z,3.90
2018-03-29T08:00:11.803Z,3.90
2018-03-29T08:02:37.782Z,3.90
2018-03-29T08:05:03.776Z,3.90
2018-03-29T08:07:29.780Z,3.80
2018-03-29T08:09:55.835Z,4.40
2018-03-29T08:12:21.790Z,4.30
2018-03-29T08:14:47.790Z,4.10
2018-03-29T08:17:13.777Z,4.00
2018-03-29T08:19:39.854Z,3.90
2018-03-29T08:22:06.010Z,4.10
2018-03-29T08:24:32.051Z,4.10
2018-03-29T08:26:58.788Z,4.00
2018-03-29T08:29:26.300Z,4.00
2018-03-29T08:31:53.059Z,4.00
2018-03-29T08:34:19.109Z,4.00
2018-03-29T08:36:45.858Z,4.10
2018-03-29T08:39:12.599Z,4.00
2018-03-29T08:41:39.322Z,4.20
2018-03-29T08:44:05.319Z,4.20
2018-03-29T08:46:31.323Z,4.10
2018-03-29T08:48:57.466Z,4.80
2018-03-29T08:51:23.478Z,4.50
2018-03-29T08:53:49.467Z,4.30
2018-03-29T08:56:15.482Z,4.20
2018-03-29T08:58:42.206Z,4.00
2018-03-29T09:01:09.118Z,4.10
2018-03-29T09:03:35.107Z,4.00
2018-03-29T09:06:01.134Z,4.10
2018-03-29T09:08:27.093Z,4.20
2018-03-29T09:10:53.060Z,4.20
2018-03-29T09:13:19.183Z,4.10
2018-03-29T09:15:45.169Z,4.10
2018-03-29T09:18:11.162Z,4.10
2018-03-29T09:20:37.175Z,4.00
2018-03-29T09:23:03.895Z,4.00
2018-03-29T09:25:30.698Z,4.10
2018-03-29T09:27:56.691Z,4.10
2018-03-29T09:30:22.728Z,4.10
2018-03-29T09:32:48.730Z,4.10
2018-03-29T09:35:14.751Z,4.20
2018-03-29T09:37:40.751Z,4.20
2018-03-29T09:40:06.755Z,4.30
2018-03-29T09:42:32.761Z,4.30
2018-03-29T09:44:58.747Z,4.10
2018-03-29T09:47:24.754Z,4.10
2018-03-29T09:49:51.503Z,4.20
2018-03-29T09:52:17.527Z,4.20
2018-03-29T09:54:43.514Z,4.30
2018-03-29T09:57:09.523Z,4.20
2018-03-29T09:59:35.579Z,4.20
2018-03-29T10:02:08.493Z,4.20
2018-03-29T10:04:35.418Z,4.20
2018-03-29T10:07:02.182Z,4.20
2018-03-29T10:09:28.185Z,4.20
2018-03-29T10:11:54.182Z,4.10
2018-03-29T10:14:20.910Z,4.20
2018-03-29T10:16:46.894Z,4.20
2018-03-29T10:19:12.879Z,4.20
2018-03-29T10:21:39.636Z,4.10
2018-03-29T10:24:05.655Z,4.10
2018-03-29T10:26:32.370Z,4.50
2018-03-29T10:28:58.366Z,4.40
2018-03-29T10:31:24.353Z,4.40
2018-03-29T10:33:51.275Z,4.40
2018-03-29T10:36:17.237Z,4.50
2018-03-29T10:38:43.225Z,4.40
2018-03-29T10:41:09.243Z,4.50
2018-03-29T10:43:35.205Z,4.20
2018-03-29T10:46:01.207Z,4.10
2018-03-29T10:48:27.195Z,4.20
2018-03-29T10:50:53.236Z,4.10
2018-03-29T10:53:19.979Z,4.40
2018-03-29T10:55:46.723Z,6.60
2018-03-29T10:58:12.742Z,6.60
2018-03-29T11:00:39.471Z,6.10
2018-03-29T11:03:05.636Z,6.10
2018-03-29T11:05:31.734Z,5.30
2018-03-29T11:07:58.480Z,4.70
2018-03-29T11:10:25.199Z,4.60
2018-03-29T11:12:51.199Z,4.60
2018-03-29T11:15:17.190Z,4.50
2018-03-29T11:17:43.141Z,4.50
2018-03-29T11:20:09.113Z,4.70
2018-03-29T11:22:35.819Z,4.40
2018-03-29T11:25:01.882Z,4.30
2018-03-29T11:27:27.822Z,4.40
2018-03-29T11:29:53.815Z,4.20
2018-03-29T11:32:19.983Z,4.40
2018-03-29T11:34:46.226Z,4.50
2018-03-29T11:37:12.202Z,4.70
2018-03-29T11:39:38.198Z,4.50
2018-03-29T11:42:04.191Z,4.60
2018-03-29T11:44:30.251Z,4.60
2018-03-29T11:46:56.978Z,4.70
2018-03-29T11:49:22.963Z,4.70
2018-03-29T11:51:49.091Z,4.60
2018-03-29T11:54:15.074Z,4.60
2018-03-29T11:56:41.059Z,4.60
2018-03-29T11:59:07.038Z,4.30
2018-03-29T12:01:33.031Z,4.40
2018-03-29T12:03:59.770Z,4.60
2018-03-29T12:06:25.755Z,4.60
2018-03-29T12:08:51.734Z,4.50
2018-03-29T12:11:18.516Z,4.40
2018-03-29T12:13:44.611Z,4.40
2018-03-29T12:16:10.602Z,4.40
2018-03-29T12:18:36.638Z,4.50
2018-03-29T12:21:03.370Z,4.40
2018-03-29T12:23:30.119Z,4.30
2018-03-29T12:25:56.146Z,4.30
2018-03-29T12:28:22.910Z,4.30
2018-03-29T12:30:48.919Z,4.20
2018-03-29T12:33:14.938Z,4.20
2018-03-29T12:35:41.030Z,4.20
2018-03-29T12:38:07.303Z,4.40
2018-03-29T12:40:33.314Z,5.00
2018-03-29T12:42:59.303Z,5.10
2018-03-29T12:45:26.067Z,4.70
2018-03-29T12:47:52.061Z,4.70
2018-03-29T12:50:18.074Z,4.80
2018-03-29T12:52:44.083Z,4.80
2018-03-29T12:55:16.225Z,4.60
2018-03-29T12:57:49.079Z,4.60
2018-03-29T13:00:15.147Z,4.60
2018-03-29T13:02:41.436Z,4.60
2018-03-29T13:05:07.502Z,4.70
2018-03-29T13:07:33.491Z,4.60
2018-03-29T13:09:59.552Z,4.50
2018-03-29T13:12:25.603Z,4.40
2018-03-29T13:14:51.602Z,4.50
2018-03-29T13:17:17.647Z,4.60
2018-03-29T13:19:43.620Z,4.60
2018-03-29T13:22:10.366Z,4.40
2018-03-29T13:24:36.359Z,4.40
2018-03-29T13:27:02.358Z,4.50
2018-03-29T13:29:28.346Z,4.50
2018-03-29T13:31:54.351Z,4.30
2018-03-29T13:34:21.102Z,4.40
2018-03-29T13:36:47.836Z,4.30
2018-03-29T13:39:14.538Z,4.20
2018-03-29T13:41:40.531Z,4.10
2018-03-29T13:44:06.527Z,4.20
2018-03-29T13:46:32.545Z,4.10
2018-03-29T13:48:59.746Z,4.10
2018-03-29T13:51:25.909Z,4.10
2018-03-29T13:53:51.974Z,4.00
2018-03-29T13:56:17.969Z,5.00
2018-03-29T13:58:44.708Z,4.90
2018-03-29T14:01:11.452Z,4.90
2018-03-29T14:03:38.195Z,4.60
2018-03-29T14:06:06.158Z,4.60
2018-03-29T14:08:32.455Z,4.60
2018-03-29T14:10:58.413Z,5.20
2018-03-29T14:13:25.192Z,4.70
2018-03-29T14:15:51.878Z,4.50
2018-03-29T14:18:17.845Z,4.70
2018-03-29T14:20:43.802Z,4.40
2018-03-29T14:23:09.774Z,4.40
2018-03-29T14:25:36.466Z,4.40
2018-03-29T14:28:02.454Z,4.40
2018-03-29T14:30:28.405Z,4.40
2018-03-29T14:32:54.446Z,4.30
2018-03-29T14:35:20.426Z,4.30
2018-03-29T14:37:46.415Z,4.30
2018-03-29T14:40:13.123Z,4.10
2018-03-29T14:42:39.101Z,4.10
2018-03-29T14:45:05.107Z,4.20
2018-03-29T14:47:31.827Z,4.10
2018-03-29T14:49:57.878Z,4.10
2018-03-29T14:52:23.870Z,4.10
2018-03-29T14:54:49.870Z,4.40
2018-03-29T14:57:15.851Z,4.30
2018-03-29T14:59:41.841Z,4.20
2018-03-29T15:02:07.851Z,4.10
2018-03-29T15:04:34.631Z,4.10
2018-03-29T15:07:01.371Z,4.20
2018-03-29T15:09:28.146Z,4.20
2018-03-29T15:11:54.203Z,4.10
2018-03-29T15:14:20.357Z,4.20
2018-03-29T15:16:46.566Z,4.30
2018-03-29T15:19:12.672Z,4.30
2018-03-29T15:21:38.708Z,4.20
2018-03-29T15:24:04.712Z,4.00
2018-03-29T15:26:30.860Z,4.00
2018-03-29T15:28:59.152Z,4.10
2018-03-29T15:31:25.183Z,4.10
2018-03-29T15:33:51.915Z,4.20
2018-03-29T15:36:20.806Z,4.20
2018-03-29T15:38:46.827Z,4.20
2018-03-29T15:41:12.843Z,4.20
2018-03-29T15:43:39.607Z,3.90
2018-03-29T15:46:05.595Z,3.90
2018-03-29T15:48:31.595Z,4.00
2018-03-29T15:50:57.679Z,4.00
2018-03-29T15:53:24.402Z,4.00
2018-03-29T15:55:50.379Z,4.00
2018-03-29T15:58:16.351Z,3.90
2018-03-29T16:00:42.355Z,4.00
2018-03-29T16:03:08.450Z,4.00
2018-03-29T16:05:34.715Z,4.10
2018-03-29T16:08:00.714Z,4.00
2018-03-29T16:10:26.690Z,4.00
2018-03-29T16:12:53.524Z,4.00
2018-03-29T16:15:19.490Z,4.00
2018-03-29T16:17:45.490Z,4.00
2018-03-29T16:20:11.507Z,4.00
2018-03-29T16:22:37.489Z,4.00
2018-03-29T16:25:03.471Z,4.00
2018-03-29T16:27:29.470Z,4.10
2018-03-29T16:29:55.498Z,4.00
2018-03-29T16:32:21.476Z,3.90
2018-03-29T16:34:47.465Z,4.10
2018-03-29T16:37:14.186Z,4.00
2018-03-29T16:39:40.307Z,4.10
2018-03-29T16:42:06.299Z,4.00
2018-03-29T16:44:32.275Z,4.00
2018-03-29T16:46:59.018Z,4.00
2018-03-29T16:49:25.024Z,3.90
2018-03-29T16:51:51.734Z,3.90
2018-03-29T16:54:17.721Z,3.90
2018-03-29T16:56:43.688Z,3.90
2018-03-29T16:59:09.843Z,3.90
2018-03-29T17:01:36.558Z,4.10
2018-03-29T17:04:03.310Z,4.10
2018-03-29T17:06:29.371Z,4.10
2018-03-29T17:08:55.667Z,4.10
2018-03-29T17:11:21.635Z,4.00
2018-03-29T17:13:47.651Z,3.90
2018-03-29T17:16:13.635Z,3.90
2018-03-29T17:18:40.370Z,3.80
2018-03-29T17:21:07.090Z,3.80
2018-03-29T17:23:33.148Z,3.80
2018-03-29T17:25:59.187Z,3.80
2018-03-29T17:28:25.230Z,3.70
2018-03-29T17:30:51.215Z,3.70
2018-03-29T17:33:17.352Z,3.70
2018-03-29T17:35:43.434Z,3.70
2018-03-29T17:38:09.402Z,3.70
2018-03-29T17:40:35.441Z,3.70
2018-03-29T17:43:01.451Z,3.70
2018-03-29T17:45:27.564Z,3.70
2018-03-29T17:47:54.294Z,3.70
2018-03-29T17:50:21.061Z,3.70
2018-03-29T17:52:47.038Z,3.70
2018-03-29T17:55:13.806Z,3.60
2018-03-29T17:57:40.526Z,3.60
2018-03-29T18:00:06.699Z,3.60
2018-03-29T18:02:32.701Z,3.50
2018-03-29T18:04:59.442Z,3.60
2018-03-29T18:07:25.426Z,3.60
2018-03-29T18:09:51.423Z,3.60
2018-03-29T18:12:17.390Z,3.70
2018-03-29T18:14:44.216Z,3.70
2018-03-29T18:17:11.075Z,3.60
2018-03-29T18:19:37.813Z,3.60
2018-03-29T18:22:03.806Z,3.60
2018-03-29T18:24:29.814Z,3.60
2018-03-29T18:26:55.770Z,3.60
2018-03-29T18:29:21.806Z,3.60
2018-03-29T18:31:47.807Z,3.60
2018-03-29T18:34:14.003Z,3.50
2018-03-29T18:36:39.998Z,3.50
2018-03-29T18:39:05.989Z,3.50
2018-03-29T18:41:32.016Z,3.60
2018-03-29T18:43:58.082Z,3.60
2018-03-29T18:46:24.103Z,3.60
2018-03-29T18:48:50.943Z,3.50
2018-03-29T18:51:18.348Z,3.50
2018-03-29T18:53:44.479Z,3.50
2018-03-29T18:56:10.599Z,3.60
2018-03-29T18:58:36.675Z,3.50
2018-03-29T19:01:03.519Z,3.60
2018-03-29T19:03:29.633Z,3.50
2018-03-29T19:05:55.675Z,3.60
2018-03-29T19:08:21.664Z,3.60
2018-03-29T19:10:47.708Z,3.60
2018-03-29T19:13:14.440Z,3.60
2018-03-29T19:15:40.447Z,3.60
2018-03-29T19:18:06.430Z,3.70
2018-03-29T19:20:32.441Z,3.60
2018-03-29T19:22:58.704Z,3.60
2018-03-29T19:25:24.711Z,3.60
2018-03-29T19:27:50.718Z,3.60
2018-03-29T19:30:16.711Z,3.60
2018-03-29T19:32:42.698Z,3.60
2018-03-29T19:35:08.795Z,3.50
2018-03-29T19:37:34.810Z,3.40
2018-03-29T19:40:01.530Z,3.50
2018-03-29T19:42:28.263Z,3.50
2018-03-29T19:44:54.250Z,3.50
2018-03-29T19:47:20.261Z,3.50
2018-03-29T19:49:46.340Z,3.50
2018-03-29T19:52:12.368Z,3.50
2018-03-29T19:54:38.363Z,3.50
2018-03-29T19:57:04.465Z,3.50
2018-03-29T19:59:30.450Z,3.60
2018-03-29T20:01:57.187Z,3.50
2018-03-29T20:04:23.202Z,3.50
2018-03-29T20:06:49.917Z,3.50
2018-03-29T20:09:15.926Z,3.50
2018-03-29T20:11:41.927Z,3.50
2018-03-29T20:14:07.923Z,3.50
2018-03-29T20:16:34.637Z,3.50
2018-03-29T20:19:00.638Z,3.40
2018-03-29T20:21:27.381Z,3.50
2018-03-29T20:23:53.367Z,3.50
2018-03-29T20:26:19.391Z,3.50
2018-03-29T20:28:45.497Z,3.50
2018-03-29T20:31:12.214Z,3.50
2018-03-29T20:33:38.219Z,3.50
2018-03-29T20:36:04.230Z,3.50
2018-03-29T20:38:30.230Z,3.50
2018-03-29T20:40:56.226Z,3.60
2018-03-29T20:43:22.217Z,3.50
2018-03-29T20:45:50.206Z,3.40
2018-03-29T20:48:17.095Z,3.40
2018-03-29T20:50:45.516Z,3.40
2018-03-29T20:53:11.837Z,3.40
2018-03-29T20:55:37.829Z,3.50
2018-03-29T20:58:03.983Z,3.50
2018-03-29T21:00:29.963Z,3.50
2018-03-29T21:02:55.970Z,3.60
2018-03-29T21:05:22.435Z,3.70
2018-03-29T21:07:48.448Z,3.60
2018-03-29T21:10:15.005Z,3.50
2018-03-29T21:12:41.011Z,3.50
2018-03-29T21:15:07.455Z,3.50
2018-03-29T21:17:33.557Z,3.50
2018-03-29T21:20:01.046Z,3.50
2018-03-29T21:22:27.948Z,3.40
2018-03-29T21:25:01.250Z,3.40
2018-03-29T21:27:28.012Z,3.40
2018-03-29T21:29:55.784Z,3.40
2018-03-29T21:32:21.769Z,3.40
2018-03-29T21:34:49.728Z,3.40
2018-03-29T21:37:16.627Z,3.40
2018-03-29T21:39:43.433Z,3.40
2018-03-29T21:42:10.354Z,3.40
2018-03-29T21:44:38.255Z,3.40
2018-03-29T21:47:06.071Z,3.40
2018-03-29T21:49:34.195Z,3.40
2018-03-29T21:52:01.039Z,3.40
2018-03-29T21:54:30.294Z,3.40
2018-03-29T21:56:58.102Z,3.40
2018-03-29T21:59:25.339Z,3.40
2018-03-29T22:01:54.918Z,3.40
2018-03-29T22:04:25.367Z,3.40
2018-03-29T22:06:54.656Z,3.40
2018-03-29T22:09:25.055Z,3.40
2018-03-29T22:11:53.915Z,3.40
2018-03-29T22:14:23.767Z,3.40
2018-03-29T22:16:52.400Z,3.20
2018-03-29T22:19:20.399Z,3.50
2018-03-29T22:21:55.374Z,3.40
2018-03-29T22:24:29.776Z,3.40
2018-03-29T22:26:59.632Z,3.40
2018-03-29T22:29:37.382Z,3.40
2018-03-29T22:32:07.588Z,3.40
2018-03-29T22:34:38.004Z,3.40
2018-03-29T22:37:09.116Z,3.40
2018-03-29T22:39:41.215Z,3.40
2018-03-29T22:42:21.579Z,3.40
2018-03-29T22:45:10.921Z,3.40
2018-03-29T22:47:55.491Z,3.40
2018-03-29T22:50:51.604Z,3.40
2018-03-29T22:53:39.563Z,3.50
2018-03-29T22:56:29.936Z,3.40
2018-03-29T22:59:13.668Z,3.40
